Time;durP1;ratioP1;P1;durP2;ratioP2;P2;SDS_P1;SDS_P2;PMS_P1;PMS_P2;Temp;Humidity;BMP_temperature;BMP_pressure;BME280_temperature;BME280_humidity;BME280_pressure;Samples;Min_cycle;Max_cycle;Signal;HPM_P1;HPM_P2
2022/03/13 00:01:34;;;;;;;12.93;8.10;;;;;;;12.68;47.61;101396.72;5241750;28;21058;-75
2022/03/13 00:04:05;;;;;;;10.57;7.43;;;;;;;12.64;47.63;101384.69;5241882;28;20056;-75
2022/03/13 00:06:38;;;;;;;9.43;7.00;;;;;;;12.73;47.47;101391.19;5239956;28;20024;-74
2022/03/13 00:09:13;;;;;;;11.80;7.95;;;;;;;12.76;47.62;101387.53;5243399;28;20541;-74
2022/03/13 00:11:45;;;;;;;11.37;8.00;;;;;;;12.62;47.89;101391.81;5240126;28;20029;-75
2022/03/13 00:14:19;;;;;;;11.07;7.37;;;;;;;12.56;48.28;101386.94;5241932;28;21181;-75
2022/03/13 00:16:52;;;;;;;10.45;7.38;;;;;;;12.62;48.36;101389.19;5242432;28;20025;-75
2022/03/13 00:19:24;;;;;;;10.67;7.80;;;;;;;12.69;47.89;101380.00;5238735;28;20023;-75
2022/03/13 00:21:55;;;;;;;8.90;7.03;;;;;;;12.66;47.81;101380.19;5242298;28;20751;-74
2022/03/13 00:24:26;;;;;;;12.43;6.93;;;;;;;12.50;48.17;101369.75;5241151;28;20423;-75
2022/03/13 00:27:00;;;;;;;12.77;7.90;;;;;;;12.57;48.28;101386.84;5239940;28;20389;-75
2022/03/13 00:29:31;;;;;;;11.38;7.25;;;;;;;12.61;47.79;101379.63;5244780;28;20389;-75
2022/03/13 00:32:03;;;;;;;9.37;7.03;;;;;;;12.63;48.00;101366.41;5242140;28;20040;-75
2022/03/13 00:34:35;;;;;;;11.60;7.13;;;;;;;12.56;48.21;101372.03;5244031;28;20476;-75
2022/03/13 00:37:06;;;;;;;8.67;6.50;;;;;;;12.53;48.14;101361.69;5239812;28;20037;-75
2022/03/13 00:39:40;;;;;;;9.70;7.23;;;;;;;12.41;48.39;101346.69;5240382;28;20017;-75
2022/03/13 00:42:12;;;;;;;;;;;;;;;13.02;46.71;101351.75;5241774;28;20060;-75
2022/03/13 00:44:44;;;;;;;9.43;7.43;;;;;;;12.57;47.86;101352.69;5241057;28;19979;-75
2022/03/13 00:47:17;;;;;;;9.30;7.67;;;;;;;12.55;47.94;101364.25;5240785;28;20028;-75
2022/03/13 00:49:49;;;;;;;11.63;7.27;;;;;;;12.41;48.32;101357.19;5242172;28;20479;-75
2022/03/13 00:52:20;;;;;;;10.17;7.60;;;;;;;12.42;48.41;101358.88;5241993;28;20468;-75
2022/03/13 00:54:51;;;;;;;11.03;7.93;;;;;;;12.42;48.25;101359.72;5240542;28;20036;-75
2022/03/13 00:57:22;;;;;;;8.80;7.60;;;;;;;12.40;48.41;101355.47;5240218;28;20037;-75
2022/03/13 00:59:54;;;;;;;11.73;7.83;;;;;;;12.43;47.94;101344.78;5240960;28;20063;-75
2022/03/13 01:02:25;;;;;;;9.87;7.30;;;;;;;12.42;48.30;101337.84;5242598;28;20060;-75
2022/03/13 01:04:56;;;;;;;11.23;7.07;;;;;;;12.44;48.28;101343.88;5241102;28;20108;-74
2022/03/13 01:07:27;;;;;;;9.73;7.07;;;;;;;12.49;48.13;101343.56;5237551;28;20025;-75
2022/03/13 01:09:59;;;;;;;10.30;7.83;;;;;;;12.52;48.48;101346.88;5243810;28;20035;-75
2022/03/13 01:12:30;;;;;;;17.80;7.63;;;;;;;12.52;48.52;101336.34;5243000;28;20038;-75
2022/03/13 01:15:03;;;;;;;10.80;8.23;;;;;;;12.37;48.76;101332.88;5242322;28;20033;-75
2022/03/13 01:17:35;;;;;;;9.63;7.53;;;;;;;12.43;48.73;101334.28;5241338;28;20052;-75
2022/03/13 01:20:15;;;;;;;10.10;7.63;;;;;;;12.39;49.27;101319.66;5241583;28;20531;-75
2022/03/13 01:22:47;;;;;;;10.57;7.67;;;;;;;12.30;49.14;101321.91;5239068;28;20969;-75
2022/03/13 01:25:19;;;;;;;9.47;7.13;;;;;;;12.15;49.56;101314.94;5241063;28;20031;-75
2022/03/13 01:27:50;;;;;;;12.23;7.63;;;;;;;12.18;49.61;101309.50;5239392;28;20026;-75
2022/03/13 01:30:21;;;;;;;8.03;6.57;;;;;;;11.97;50.23;101305.38;5238982;28;20094;-75
2022/03/13 01:32:54;;;;;;;10.57;7.53;;;;;;;12.01;50.30;101313.91;5239767;28;20079;-74
2022/03/13 01:35:25;;;;;;;9.87;7.27;;;;;;;11.87;50.72;101322.59;5239023;28;20021;-75
2022/03/13 01:37:57;;;;;;;8.17;6.93;;;;;;;11.85;50.56;101311.34;5239722;28;20507;-75
2022/03/13 01:40:28;;;;;;;8.80;7.10;;;;;;;11.88;51.12;101312.94;5237487;28;20052;-75
2022/03/13 01:43:00;;;;;;;9.10;7.07;;;;;;;11.89;50.48;101302.34;5238701;28;20120;-75
2022/03/13 01:45:31;;;;;;;7.90;6.30;;;;;;;11.90;50.33;101284.84;5230352;28;20029;-74
2022/03/13 01:48:02;;;;;;;9.20;6.13;;;;;;;11.91;50.64;101297.00;5228233;28;20040;-74
2022/03/13 01:50:34;;;;;;;8.80;6.87;;;;;;;11.91;50.70;101283.88;5230229;28;20029;-75
2022/03/13 01:53:08;;;;;;;9.93;6.93;;;;;;;11.79;51.25;101278.44;5235984;28;20137;-75
2022/03/13 01:55:39;;;;;;;9.07;6.50;;;;;;;11.78;51.15;101271.47;5246375;28;20051;-74
2022/03/13 01:58:12;;;;;;;7.47;6.17;;;;;;;11.71;51.57;101283.28;5238868;28;20025;-74
2022/03/13 02:00:43;;;;;;;7.63;5.80;;;;;;;11.65;51.72;101294.13;5238722;28;20044;-75
2022/03/13 02:03:16;;;;;;;7.50;5.70;;;;;;;11.55;52.03;101292.03;5228207;28;20049;-75
2022/03/13 02:05:48;;;;;;;7.43;5.50;;;;;;;11.70;51.66;101279.81;5230563;28;20130;-75
2022/03/13 02:08:22;;;;;;;10.63;6.13;;;;;;;11.56;52.63;101280.59;5250743;22;20079;-75
2022/03/13 02:10:53;;;;;;;9.70;6.30;;;;;;;11.45;52.33;101281.19;5270344;28;20036;-74
2022/03/13 02:13:24;;;;;;;8.10;6.03;;;;;;;11.65;51.96;101278.38;5256282;28;20178;-74
2022/03/13 02:15:56;;;;;;;7.97;6.37;;;;;;;11.45;52.35;101269.88;5268195;28;20033;-74
2022/03/13 02:18:27;;;;;;;12.73;6.13;;;;;;;11.32;52.86;101273.19;5263290;28;20078;-74
2022/03/13 02:20:58;;;;;;;9.33;6.67;;;;;;;11.36;52.94;101266.84;5271693;28;20390;-74
2022/03/13 02:23:30;;;;;;;9.67;7.57;;;;;;;11.35;52.52;101259.91;5261439;28;20033;-74
2022/03/13 02:26:03;;;;;;;10.33;7.47;;;;;;;11.50;52.32;101278.34;5250766;28;20101;-74
2022/03/13 02:28:39;;;;;;;10.93;8.10;;;;;;;11.47;52.40;101274.09;5266010;28;20036;-75
2022/03/13 02:31:23;;;;;;;11.30;8.37;;;;;;;11.70;51.76;101284.19;5259888;28;20036;-74
2022/03/13 02:33:56;;;;;;;11.35;8.98;;;;;;;11.68;51.82;101286.06;5266344;28;20506;-74
2022/03/13 02:36:27;;;;;;;11.37;9.03;;;;;;;11.75;51.22;101287.41;5250279;28;20049;-75
2022/03/13 02:39:02;;;;;;;15.53;9.03;;;;;;;11.81;51.56;101271.31;5264874;28;20123;-74
2022/03/13 02:41:34;;;;;;;14.67;9.17;;;;;;;11.62;51.88;101267.13;5263265;28;20124;-75
2022/03/13 02:44:07;;;;;;;12.53;8.87;;;;;;;11.71;51.74;101272.78;5264372;28;20124;-74
2022/03/13 02:46:59;;;;;;;12.70;8.93;;;;;;;11.86;51.21;101266.66;5248892;28;20479;-74
2022/03/13 02:49:33;;;;;;;13.00;9.13;;;;;;;11.67;52.85;101273.88;5261860;28;20112;-74
2022/03/13 02:52:05;;;;;;;12.30;8.80;;;;;;;11.65;53.04;101273.13;5268564;28;20079;-74
2022/03/13 02:54:37;;;;;;;11.57;8.67;;;;;;;11.71;52.60;101267.53;5270940;28;20028;-74
2022/03/13 02:57:08;;;;;;;13.83;10.30;;;;;;;11.70;54.97;101256.19;5265453;28;20032;-75
2022/03/13 02:59:39;;;;;;;14.80;10.60;;;;;;;11.74;53.13;101262.09;5267756;28;20024;-74
2022/03/13 03:02:11;;;;;;;13.53;10.13;;;;;;;11.58;54.69;101260.38;5252831;28;20032;-75
2022/03/13 03:04:43;;;;;;;15.23;9.80;;;;;;;11.73;53.93;101252.53;5251501;28;20052;-74
2022/03/13 03:07:16;;;;;;;13.77;10.33;;;;;;;11.59;53.98;101246.31;5254469;28;20108;-74
2022/03/13 03:09:47;;;;;;;14.70;11.47;;;;;;;11.54;55.17;101243.13;5270501;28;20634;-74
2022/03/13 03:12:18;;;;;;;14.10;10.43;;;;;;;11.53;54.59;101254.56;5269275;28;20047;-75
2022/03/13 03:14:49;;;;;;;14.97;11.33;;;;;;;11.58;54.07;101254.28;5263152;28;20047;-74
2022/03/13 03:17:21;;;;;;;14.57;11.20;;;;;;;11.67;54.55;101239.78;5249276;28;20029;-74
2022/03/13 03:19:52;;;;;;;15.73;11.57;;;;;;;11.62;55.56;101240.06;5250216;28;20112;-75
2022/03/13 03:22:23;;;;;;;14.80;11.10;;;;;;;11.47;55.15;101252.25;5255715;28;20043;-74
2022/03/13 03:24:56;;;;;;;14.00;10.67;;;;;;;11.38;55.22;101233.50;5271192;28;20029;-74
2022/03/13 03:27:30;;;;;;;17.57;12.30;;;;;;;11.48;55.92;101251.34;5262281;28;20495;-74
2022/03/13 03:30:02;;;;;;;16.03;11.63;;;;;;;11.61;55.78;101233.97;5260283;28;20025;-74
2022/03/13 03:32:34;;;;;;;13.83;11.57;;;;;;;11.43;56.44;101241.09;5250198;28;20116;-74
2022/03/13 03:35:05;;;;;;;13.83;11.43;;;;;;;11.45;56.35;101231.38;5249409;28;20519;-74
2022/03/13 03:37:36;;;;;;;15.90;12.27;;;;;;;11.52;57.40;101234.47;5251073;28;20029;-74
2022/03/13 03:40:08;;;;;;;15.53;12.07;;;;;;;11.55;56.60;101230.84;5249083;28;20021;-75
2022/03/13 03:42:40;;;;;;;15.07;12.43;;;;;;;11.42;57.40;101246.44;5255886;28;20116;-74
2022/03/13 03:45:16;;;;;;;13.23;10.83;;;;;;;11.41;56.63;101243.00;5268672;28;20039;-75
2022/03/13 03:47:48;;;;;;;18.20;13.60;;;;;;;11.28;57.61;101241.97;5264280;28;20482;-75
2022/03/13 03:50:20;;;;;;;15.77;12.10;;;;;;;11.16;57.22;101247.00;5268875;28;20066;-74
2022/03/13 03:52:56;;;;;;;19.10;12.73;;;;;;;11.11;57.69;101242.00;5255846;28;20112;-75
2022/03/13 03:55:27;;;;;;;14.73;12.60;;;;;;;11.19;57.93;101249.44;5248229;28;20021;-75
2022/03/13 03:57:59;;;;;;;18.37;12.80;;;;;;;11.06;56.99;101238.81;5264098;28;20050;-74
2022/03/13 04:00:30;;;;;;;17.57;14.20;;;;;;;10.92;56.96;101234.31;5259541;28;20108;-75
2022/03/13 04:03:01;;;;;;;22.70;14.70;;;;;;;10.91;56.85;101242.28;5268731;28;20506;-74
2022/03/13 04:05:32;;;;;;;18.33;14.03;;;;;;;10.81;57.91;101237.53;5251249;28;20042;-74
2022/03/13 04:08:04;;;;;;;23.80;14.20;;;;;;;10.77;57.54;101238.59;5262723;28;20622;-75
2022/03/13 04:10:35;;;;;;;19.77;14.97;;;;;;;10.65;59.02;101235.75;5269977;28;20045;-74
2022/03/13 04:13:07;;;;;;;19.33;16.00;;;;;;;10.64;58.27;101233.22;5262179;28;20055;-74
2022/03/13 04:15:38;;;;;;;20.77;16.60;;;;;;;10.60;58.70;101224.66;5257535;28;20239;-74
2022/03/13 04:18:10;;;;;;;19.00;15.60;;;;;;;10.69;57.53;101231.19;5265100;28;20029;-75
2022/03/13 04:20:43;;;;;;;20.50;15.87;;;;;;;10.70;57.57;101232.03;5271807;28;20151;-74
2022/03/13 04:23:14;;;;;;;20.77;17.37;;;;;;;10.64;57.46;101233.22;5266874;28;20028;-74
2022/03/13 04:25:46;;;;;;;23.17;18.17;;;;;;;10.55;57.35;101229.31;5275512;28;20029;-74
2022/03/13 04:28:17;;;;;;;20.27;16.17;;;;;;;10.44;57.44;101226.41;5270279;28;20033;-74
2022/03/13 04:30:52;;;;;;;22.43;17.93;;;;;;;10.40;57.71;101225.72;5261145;28;20033;-74
2022/03/13 04:33:25;;;;;;;21.37;17.53;;;;;;;10.35;58.57;101225.94;5258257;28;20028;-74
2022/03/13 04:36:00;;;;;;;20.53;17.73;;;;;;;10.38;59.58;101233.66;5254632;28;20029;-74
2022/03/13 04:38:32;;;;;;;21.80;17.77;;;;;;;10.38;60.99;101228.41;5268553;28;20035;-74
2022/03/13 04:41:04;;;;;;;22.57;18.00;;;;;;;10.32;61.45;101228.72;5272126;28;20021;-74
2022/03/13 04:43:35;;;;;;;22.63;18.30;;;;;;;10.17;61.87;101218.13;5264901;28;20112;-74
2022/03/13 04:46:06;;;;;;;23.47;20.03;;;;;;;10.01;64.04;101225.94;5255282;28;20033;-74
2022/03/13 04:48:38;;;;;;;23.50;19.37;;;;;;;9.89;63.82;101218.72;5253050;28;20021;-74
2022/03/13 04:51:09;;;;;;;23.10;20.63;;;;;;;9.82;63.56;101226.03;5252140;28;20056;-74
2022/03/13 04:53:41;;;;;;;23.57;19.60;;;;;;;9.71;65.10;101225.69;5268360;28;20028;-74
2022/03/13 04:56:12;;;;;;;25.73;20.27;;;;;;;9.62;65.91;101220.03;5264440;28;20082;-74
2022/03/13 04:58:43;;;;;;;23.00;19.40;;;;;;;9.62;65.81;101227.00;5258296;28;20029;-74
2022/03/13 05:01:16;;;;;;;24.90;19.57;;;;;;;9.62;65.60;101225.25;5252323;28;20040;-74
2022/03/13 05:03:47;;;;;;;24.97;19.87;;;;;;;9.53;65.52;101221.31;5252307;28;20812;-74
2022/03/13 05:06:19;;;;;;;22.63;18.77;;;;;;;9.59;65.41;101224.56;5259509;28;20039;-74
2022/03/13 05:08:50;;;;;;;24.70;19.80;;;;;;;9.62;63.13;101220.03;5267949;28;20102;-74
2022/03/13 05:11:22;;;;;;;24.70;20.57;;;;;;;9.64;63.32;101212.94;5263620;28;20076;-74
2022/03/13 05:13:53;;;;;;;22.30;18.33;;;;;;;9.54;63.25;101209.97;5256182;28;20052;-74
2022/03/13 05:16:25;;;;;;;24.63;19.17;;;;;;;9.73;62.61;101221.25;5260644;28;20038;-74
2022/03/13 05:18:56;;;;;;;21.70;17.70;;;;;;;9.64;63.03;101217.31;5271422;28;20036;-74
2022/03/13 05:21:28;;;;;;;21.00;18.73;;;;;;;9.63;62.75;101211.28;5274816;28;20024;-74
2022/03/13 05:24:00;;;;;;;22.63;18.83;;;;;;;9.61;62.60;101207.88;5258364;28;20043;-74
2022/03/13 05:26:33;;;;;;;22.23;19.00;;;;;;;9.51;61.63;101202.25;5258821;28;20112;-74
2022/03/13 05:29:04;;;;;;;22.30;18.47;;;;;;;9.46;61.73;101203.41;5251570;28;20025;-74
2022/03/13 05:31:36;;;;;;;23.27;18.63;;;;;;;9.54;62.09;101223.03;5252410;28;20036;-74
2022/03/13 05:34:07;;;;;;;21.97;18.43;;;;;;;9.49;62.62;101213.72;5257905;28;20056;-74
2022/03/13 05:36:38;;;;;;;22.10;18.43;;;;;;;9.40;61.33;101221.09;5269352;28;20125;-74
2022/03/13 05:39:09;;;;;;;22.43;17.33;;;;;;;9.38;61.09;101214.22;5271166;28;20402;-74
2022/03/13 05:41:42;;;;;;;22.57;16.90;;;;;;;9.41;61.05;101217.53;5271136;28;20025;-73
2022/03/13 05:44:14;;;;;;;21.37;16.43;;;;;;;9.42;60.10;101213.16;5261111;28;20077;-74
2022/03/13 05:46:45;;;;;;;21.77;16.30;;;;;;;9.48;60.47;101210.25;5271455;28;20470;-74
2022/03/13 05:49:17;;;;;;;21.77;17.10;;;;;;;9.40;60.06;101215.88;5251224;28;20033;-74
2022/03/13 05:51:48;;;;;;;21.63;16.93;;;;;;;9.28;60.51;101200.78;5269157;28;20557;-74
2022/03/13 05:54:20;;;;;;;20.63;17.10;;;;;;;9.72;59.37;101220.41;5263208;28;20076;-74
2022/03/13 05:56:52;;;;;;;26.80;17.73;;;;;;;9.54;59.16;101223.03;5252719;28;20088;-74
2022/03/13 05:59:25;;;;;;;18.60;16.60;;;;;;;9.48;59.65;101212.84;5258026;28;20028;-74
2022/03/13 06:02:01;;;;;;;21.23;16.63;;;;;;;9.53;59.66;101225.72;5271822;28;20021;-74
2022/03/13 06:04:34;;;;;;;21.23;15.43;;;;;;;9.48;59.77;101214.66;5263070;28;20032;-74
2022/03/13 06:07:06;;;;;;;21.48;17.08;;;;;;;9.45;59.56;101220.84;5268894;28;20028;-74
2022/03/13 06:09:37;;;;;;;22.87;15.83;;;;;;;9.41;59.47;101222.78;5271672;28;20097;-74
2022/03/13 06:12:09;;;;;;;18.87;15.53;;;;;;;9.47;59.18;101221.63;5266534;28;20029;-74
2022/03/13 06:14:40;;;;;;;23.47;16.50;;;;;;;9.51;58.82;101228.38;5255491;28;20067;-74
2022/03/13 06:17:11;;;;;;;18.87;15.50;;;;;;;9.56;58.98;101226.38;5252352;28;20523;-74
2022/03/13 06:19:44;;;;;;;19.07;15.97;;;;;;;9.64;58.60;101219.94;5272138;28;20020;-74
2022/03/13 06:22:17;;;;;;;21.90;16.00;;;;;;;9.54;59.10;101220.41;5265812;28;20488;-74
2022/03/13 06:24:49;;;;;;;26.87;16.63;;;;;;;9.55;58.39;101218.63;5261032;28;20035;-75
2022/03/13 06:27:21;;;;;;;21.07;15.63;;;;;;;9.60;58.01;101221.84;5268431;28;20636;-74
2022/03/13 06:29:52;;;;;;;25.40;15.90;;;;;;;9.78;56.81;101232.31;5269030;28;20028;-74
2022/03/13 06:32:25;;;;;;;19.37;15.57;;;;;;;9.65;57.38;101230.31;5248480;28;20126;-75
2022/03/13 06:34:57;;;;;;;20.50;15.80;;;;;;;9.56;57.33;101230.78;5260719;28;20067;-74
2022/03/13 06:37:28;;;;;;;19.97;15.17;;;;;;;9.46;57.65;101214.69;5245008;28;20029;-75
2022/03/13 06:39:59;;;;;;;18.90;15.37;;;;;;;9.61;57.87;101243.63;5267557;28;20043;-74
2022/03/13 06:42:31;;;;;;;23.23;16.43;;;;;;;9.54;57.41;101236.09;5271191;28;20098;-74
2022/03/13 06:45:03;;;;;;;20.30;15.80;;;;;;;9.67;57.21;101228.47;5267447;28;20060;-74
2022/03/13 06:47:34;;;;;;;21.53;16.57;;;;;;;9.50;57.82;101220.63;5252593;28;20037;-74
2022/03/13 06:50:07;;;;;;;18.00;14.70;;;;;;;9.59;57.58;101229.78;5254384;28;20390;-74
2022/03/13 06:52:38;;;;;;;19.13;15.13;;;;;;;9.51;57.46;101235.41;5256451;28;20049;-74
2022/03/13 06:55:13;;;;;;;22.67;15.77;;;;;;;9.59;57.72;101233.25;5249311;28;20069;-74
2022/03/13 06:57:44;;;;;;;;;;;;;;;10.00;56.75;101239.94;5253237;28;20025;-74
2022/03/13 07:00:16;;;;;;;19.37;14.47;;;;;;;9.67;57.71;101236.31;5252701;28;19939;-74
2022/03/13 07:02:48;;;;;;;18.37;14.40;;;;;;;9.58;57.33;101228.97;5261266;28;20575;-74
2022/03/13 07:05:19;;;;;;;23.80;16.03;;;;;;;9.74;56.85;101239.47;5270773;28;20095;-74
2022/03/13 07:07:54;;;;;;;19.60;15.47;;;;;;;9.72;57.06;101230.84;5261447;28;20032;-74
2022/03/13 07:10:25;;;;;;;22.67;17.33;;;;;;;9.68;56.18;101229.34;5249893;28;20440;-74
2022/03/13 07:12:57;;;;;;;18.43;15.13;;;;;;;9.73;56.22;101229.09;5255710;28;20067;-74
2022/03/13 07:15:31;;;;;;;20.83;16.10;;;;;;;9.72;55.83;101235.25;5258778;28;20099;-74
2022/03/13 07:18:02;;;;;;;18.83;14.75;;;;;;;9.64;56.04;101230.41;5259632;28;20025;-74
2022/03/13 07:20:33;;;;;;;20.13;15.17;;;;;;;9.68;57.08;101230.19;5250585;28;20021;-74
2022/03/13 07:23:05;;;;;;;20.43;15.70;;;;;;;9.62;56.72;101235.72;5250948;28;20120;-74
2022/03/13 07:25:36;;;;;;;21.83;14.83;;;;;;;9.65;56.56;101230.31;5250654;28;20053;-74
2022/03/13 07:28:07;;;;;;;21.07;16.07;;;;;;;9.65;57.42;101221.66;5268586;28;20040;-74
2022/03/13 07:30:39;;;;;;;19.03;14.43;;;;;;;9.72;56.63;101225.63;5260721;28;20040;-74
2022/03/13 07:33:10;;;;;;;23.77;15.00;;;;;;;9.67;56.39;101222.41;5261013;28;20028;-74
2022/03/13 07:35:41;;;;;;;17.23;14.30;;;;;;;9.83;56.07;101230.31;5250016;28;20540;-74
2022/03/13 07:38:13;;;;;;;17.93;15.33;;;;;;;9.80;55.97;101230.47;5249529;28;20116;-74
2022/03/13 07:40:44;;;;;;;22.00;14.67;;;;;;;9.83;56.03;101222.47;5269381;28;20025;-74
2022/03/13 07:43:17;;;;;;;21.53;15.47;;;;;;;9.89;55.87;101221.31;5266241;28;20719;-74
2022/03/13 07:45:49;;;;;;;18.73;14.50;;;;;;;9.91;55.17;101222.94;5251785;28;20033;-74
2022/03/13 07:48:21;;;;;;;20.93;15.37;;;;;;;10.09;54.98;101222.91;5260903;28;20024;-74
2022/03/13 07:50:53;;;;;;;18.33;14.37;;;;;;;9.99;56.00;101221.69;5274457;28;20383;-73
2022/03/13 07:53:27;;;;;;;21.20;15.80;;;;;;;9.98;55.17;101209.53;5271392;28;20601;-74
2022/03/13 07:55:59;;;;;;;18.17;15.07;;;;;;;10.14;54.91;101220.91;5256854;28;20029;-74
2022/03/13 07:58:31;;;;;;;19.37;14.37;;;;;;;10.16;54.68;101219.06;5272553;28;20054;-75
2022/03/13 08:01:02;;;;;;;21.30;15.03;;;;;;;10.21;55.48;101220.59;5265473;28;20396;-75
2022/03/13 08:03:38;;;;;;;18.50;14.60;;;;;;;10.26;54.23;101219.41;5262340;28;20037;-74
2022/03/13 08:06:10;;;;;;;20.57;14.93;;;;;;;10.30;55.25;101225.31;5260278;28;20403;-74
2022/03/13 08:08:41;;;;;;;19.40;15.77;;;;;;;10.52;54.87;101224.25;5252930;28;20045;-75
2022/03/13 08:11:12;;;;;;;19.47;15.37;;;;;;;10.41;54.15;101230.88;5252226;28;20061;-75
2022/03/13 08:13:44;;;;;;;22.07;16.00;;;;;;;10.48;53.60;101223.56;5253115;28;20036;-74
2022/03/13 08:16:16;;;;;;;23.20;15.77;;;;;;;10.58;54.41;101223.91;5252549;28;20087;-74
2022/03/13 08:18:47;;;;;;;19.93;15.10;;;;;;;10.51;53.62;101215.53;5257868;28;20036;-75
2022/03/13 08:21:19;;;;;;;17.90;14.07;;;;;;;10.71;53.87;101223.22;5252393;28;20017;-74
2022/03/13 08:23:50;;;;;;;19.90;15.90;;;;;;;10.72;53.49;101225.78;5252083;28;20082;-74
2022/03/13 08:26:21;;;;;;;20.03;15.40;;;;;;;10.80;53.00;101225.38;5252306;28;20094;-75
2022/03/13 08:28:53;;;;;;;20.43;15.67;;;;;;;10.80;52.52;101216.66;5253314;28;20077;-75
2022/03/13 08:31:24;;;;;;;20.60;14.77;;;;;;;10.84;52.67;101229.50;5255949;28;20025;-75
2022/03/13 08:33:56;;;;;;;18.80;14.23;;;;;;;11.24;51.65;101226.41;5251213;28;20020;-75
2022/03/13 08:36:27;;;;;;;18.30;14.13;;;;;;;11.48;51.61;101225.94;5251840;28;20128;-75
2022/03/13 08:38:59;;;;;;;22.23;16.23;;;;;;;11.52;51.00;101215.28;5253609;28;20331;-75
2022/03/13 08:41:30;;;;;;;18.60;13.77;;;;;;;11.92;49.91;101214.72;5268508;28;20033;-75
2022/03/13 08:44:02;;;;;;;18.63;15.13;;;;;;;12.26;49.67;101227.63;5260019;28;20028;-75
2022/03/13 08:46:34;;;;;;;19.17;14.20;;;;;;;12.49;49.32;101213.06;5245746;28;20450;-75
2022/03/13 08:49:07;;;;;;;18.33;14.27;;;;;;;12.85;47.62;101233.66;5265431;28;20033;-75
2022/03/13 08:51:38;;;;;;;17.80;13.87;;;;;;;13.84;45.84;101222.94;5253724;28;20059;-75
2022/03/13 08:54:09;;;;;;;20.73;15.37;;;;;;;14.84;43.17;101218.72;5259394;28;20095;-74
2022/03/13 08:56:41;;;;;;;16.27;13.80;;;;;;;14.85;42.01;101223.06;5262686;28;20391;-75
2022/03/13 08:59:12;;;;;;;19.80;15.37;;;;;;;15.72;41.08;101218.47;5269107;28;20052;-77
2022/03/13 09:01:43;;;;;;;16.50;13.30;;;;;;;16.50;39.28;101209.91;5252702;28;20111;-77
2022/03/13 09:04:14;;;;;;;19.00;14.30;;;;;;;16.09;38.52;101220.94;5254479;28;20048;-76
2022/03/13 09:06:46;;;;;;;16.90;13.93;;;;;;;16.97;38.11;101230.00;5263494;28;20020;-81
2022/03/13 09:09:19;;;;;;;17.27;14.47;;;;;;;17.86;36.73;101208.66;5261696;28;20052;-74
2022/03/13 09:11:53;;;;;;;17.47;14.23;;;;;;;18.33;35.37;101220.59;5248809;28;20531;-74
2022/03/13 09:14:26;;;;;;;16.42;13.68;;;;;;;19.90;33.61;101215.50;5238261;28;20029;-73
2022/03/13 09:16:58;;;;;;;18.40;13.80;;;;;;;20.49;31.88;101215.28;5240261;28;21502;-74
2022/03/13 09:19:29;;;;;;;15.90;13.83;;;;;;;20.85;31.31;101221.63;5250596;28;20021;-74
2022/03/13 09:22:00;;;;;;;16.83;13.80;;;;;;;20.77;30.55;101220.56;5250015;28;20547;-74
2022/03/13 09:24:31;;;;;;;16.63;13.33;;;;;;;20.70;31.50;101213.34;5250392;28;20029;-72
2022/03/13 09:27:03;;;;;;;16.40;13.07;;;;;;;20.91;31.80;101207.72;5254678;28;20063;-72
2022/03/13 09:29:34;;;;;;;15.63;13.90;;;;;;;19.78;32.32;101207.72;5244409;28;20055;-75
2022/03/13 09:32:06;;;;;;;18.43;14.10;;;;;;;21.44;29.93;101207.88;5249542;28;20162;-78
2022/03/13 09:34:38;;;;;;;18.30;14.73;;;;;;;20.64;30.73;101198.81;5256636;28;20025;-78
2022/03/13 09:37:09;;;;;;;16.50;14.30;;;;;;;21.00;30.50;101209.50;5258095;28;20154;-78
2022/03/13 09:39:41;;;;;;;13.87;12.37;;;;;;;22.42;28.74;101213.06;5263502;28;20119;-77
2022/03/13 09:42:12;;;;;;;15.48;13.13;;;;;;;22.78;28.05;101221.88;5269384;28;20043;-77
2022/03/13 09:44:43;;;;;;;13.32;12.00;;;;;;;22.66;28.14;101224.84;5270300;28;20036;-77
2022/03/13 09:47:15;;;;;;;15.00;11.82;;;;;;;23.49;27.58;101216.06;5269648;28;20048;-77
2022/03/13 09:49:46;;;;;;;12.65;11.10;;;;;;;24.64;26.42;101221.19;5270667;28;20032;-77
2022/03/13 09:52:18;;;;;;;12.18;10.68;;;;;;;25.39;26.07;101211.78;5252313;28;20043;-77
2022/03/13 09:54:49;;;;;;;12.80;11.55;;;;;;;24.94;25.17;101214.34;5252018;28;20110;-77
2022/03/13 09:57:20;;;;;;;13.32;11.93;;;;;;;24.12;25.90;101195.84;5258799;28;20111;-77
2022/03/13 09:59:52;;;;;;;13.75;11.23;;;;;;;24.56;25.53;101212.38;5269582;28;20044;-76
2022/03/13 10:02:34;;;;;;;15.00;11.27;;;;;;;25.23;25.39;101210.06;5266374;28;20032;-76
2022/03/13 10:05:17;;;;;;;15.00;11.40;;;;;;;25.64;25.09;101216.91;5250045;28;20360;-76
2022/03/13 10:08:00;;;;;;;15.30;11.40;;;;;;;25.37;25.22;101206.59;5214420;28;1022009;-80
2022/03/13 10:10:41;;;;;;;13.07;10.32;;;;;;;25.76;25.10;101195.84;5252334;28;20047;-71
2022/03/13 10:13:15;;;;;;;11.40;10.30;;;;;;;24.71;26.09;101207.09;5250444;28;20068;-76
2022/03/13 10:15:49;;;;;;;11.57;10.00;;;;;;;25.18;25.94;101199.91;5250269;28;20076;-75
2022/03/13 10:18:23;;;;;;;11.93;8.95;;;;;;;25.32;25.05;101206.31;5249329;28;20495;-76
2022/03/13 10:20:55;;;;;;;15.80;11.38;;;;;;;25.11;25.14;101189.09;5251262;28;20033;-75
2022/03/13 10:23:29;;;;;;;11.90;10.40;;;;;;;24.76;26.99;101186.81;5269422;28;20037;-75
2022/03/13 10:26:00;;;;;;;13.57;10.40;;;;;;;23.78;26.23;101174.56;5256352;28;20511;-76
2022/03/13 10:28:37;;;;;;;11.20;9.55;;;;;;;24.27;26.56;101171.88;5252922;28;20017;-76
2022/03/13 10:31:11;;;;;;;11.50;10.40;;;;;;;24.26;26.45;101175.56;5258983;28;20035;-76
2022/03/13 10:33:43;;;;;;;11.50;9.73;;;;;;;25.02;25.26;101184.78;5247071;28;20120;-75
2022/03/13 10:36:17;;;;;;;11.68;10.48;;;;;;;23.07;26.99;101167.13;5259522;28;20120;-76
2022/03/13 10:38:50;;;;;;;13.30;11.93;;;;;;;21.07;29.34;101176.97;5252710;28;20025;-77
2022/03/13 10:41:39;;;;;;;12.95;11.65;;;;;;;20.97;30.32;101161.88;5268639;28;20391;-77
2022/03/13 10:44:15;;;;;;;13.82;11.05;;;;;;;21.06;30.42;101154.81;5267402;28;20032;-77
2022/03/13 10:46:55;;;;;;;11.90;10.73;;;;;;;21.82;29.28;101162.31;5249441;28;20263;-77
2022/03/13 10:49:41;;;;;;;11.35;10.07;;;;;;;22.00;29.00;101156.91;5249566;28;20025;-76
2022/03/13 10:52:29;;;;;;;13.10;10.82;;;;;;;20.67;30.74;101151.44;5262227;28;20035;-78
2022/03/13 10:55:24;;;;;;;11.57;10.40;;;;;;;20.54;31.45;101177.59;5270134;28;20493;-76
2022/03/13 10:57:57;;;;;;;15.38;11.05;;;;;;;19.38;32.84;101160.94;5249584;28;20040;-77
2022/03/13 11:00:28;;;;;;;12.75;11.45;;;;;;;18.91;33.51;101155.38;5249297;28;20064;-78
2022/03/13 11:03:11;;;;;;;11.07;9.83;;;;;;;19.40;33.31;101153.69;5247912;28;20049;-77
2022/03/13 11:05:43;;;;;;;10.77;9.67;;;;;;;18.86;34.64;101147.84;5254579;28;20025;-76
2022/03/13 11:08:15;;;;;;;9.90;8.90;;;;;;;19.85;33.05;101146.00;5249036;28;20109;-78
2022/03/13 11:10:48;;;;;;;14.63;11.30;;;;;;;18.78;33.90;101139.72;5247677;28;20058;-77
2022/03/13 11:13:26;;;;;;;12.70;10.27;;;;;;;18.57;34.97;101137.22;5249126;28;20029;-78
2022/03/13 11:15:58;;;;;;;12.43;10.07;;;;;;;18.48;35.30;101141.53;5249034;28;20040;-78
2022/03/13 11:18:33;;;;;;;11.43;10.23;;;;;;;18.01;35.57;101146.38;5249277;28;20029;-77
2022/03/13 11:21:08;;;;;;;11.20;9.43;;;;;;;17.49;36.64;101130.53;5248394;28;20036;-77
2022/03/13 11:23:39;;;;;;;10.30;9.00;;;;;;;17.80;35.99;101135.84;5252584;28;20025;-78
2022/03/13 11:26:14;;;;;;;11.93;9.47;;;;;;;18.30;36.01;101131.59;5251413;28;20427;-76
2022/03/13 11:28:47;;;;;;;11.33;10.10;;;;;;;18.62;35.21;101130.50;5254195;28;20068;-78
2022/03/13 11:31:33;;;;;;;12.63;10.63;;;;;;;18.95;34.96;101129.41;5249777;28;20678;-79
2022/03/13 11:34:18;;;;;;;10.10;9.00;;;;;;;18.89;35.46;101127.28;5251066;28;20709;-77
2022/03/13 11:36:51;;;;;;;11.50;9.37;;;;;;;18.60;34.17;101131.63;5251624;28;20020;-81
2022/03/13 11:39:31;;;;;;;13.17;9.43;;;;;;;19.06;34.12;101128.44;5253429;28;20747;-81